Time;durP1;ratioP1;P1;durP2;ratioP2;P2;SDS_P1;SDS_P2;PMS_P1;PMS_P2;Temp;Humidity;BMP_temperature;BMP_pressure;BME280_temperature;BME280_humidity;BME280_pressure;Samples;Min_cycle;Max_cycle;Signal;HPM_P1;HPM_P2
2024/04/16 00:02:01;;;;;;;13.8;8.6;;;;;;;10.87;89.25;97103.333333333;;;;
2024/04/16 00:12:01;;;;;;;13.8;8.6;;;;;;;10.94;89.87;97116.666666667;;;;
2024/04/16 00:22:01;;;;;;;13.8;8.6;;;;;;;11;89.29;97098.333333333;;;;
2024/04/16 00:33:01;;;;;;;8.4;4.2;;;;;;;11.24;88.14;97110;;;;
2024/04/16 00:44:01;;;;;;;8.4;4.2;;;;;;;11.43;87.41;97115;;;;
2024/04/16 00:54:01;;;;;;;4;2.2;;;;;;;11.68;86.13;97091.666666667;;;;
2024/04/16 01:05:01;;;;;;;4;2.2;;;;;;;11.97;84.26;97080;;;;
2024/04/16 01:15:01;;;;;;;4;2.2;;;;;;;12.16;82.59;97050;;;;
2024/04/16 01:25:01;;;;;;;5.4;1.5;;;;;;;12.37;81.53;97028.333333333;;;;
2024/04/16 01:35:01;;;;;;;5.4;1.5;;;;;;;12.47;80.45;97030;;;;
2024/04/16 01:46:01;;;;;;;5.4;1.5;;;;;;;12.55;79.35;97030;;;;
2024/04/16 01:56:01;;;;;;;3.5;1.3;;;;;;;12.6;78.84;97038.333333333;;;;
2024/04/16 02:06:01;;;;;;;3.5;1.3;;;;;;;12.65;78.48;97045;;;;
2024/04/16 02:17:03;;;;;;;3.5;1.3;;;;;;;12.81;77.26;97105;;;;
2024/04/16 02:27:01;;;;;;;4.5;2.2;;;;;;;12.36;77.02;97130;;;;
2024/04/16 02:37:01;;;;;;;4.5;2.2;;;;;;;11.64;73.89;97111.666666667;;;;
2024/04/16 02:47:01;;;;;;;4.5;2.2;;;;;;;11.34;75.8;97126.666666667;;;;
2024/04/16 02:58:01;;;;;;;3;1.2;;;;;;;10.78;77.44;97131.666666667;;;;
2024/04/16 03:08:01;;;;;;;3;1.2;;;;;;;10.61;78.58;97121.666666667;;;;
2024/04/16 03:18:01;;;;;;;3;1.2;;;;;;;10.35;80.23;97113.333333333;;;;
2024/04/16 03:29:01;;;;;;;1.1;0.5;;;;;;;10.02;81.6;97105;;;;
2024/04/16 03:39:01;;;;;;;1.1;0.5;;;;;;;10.05;80.27;97095;;;;
2024/04/16 03:49:01;;;;;;;1.1;0.5;;;;;;;9.94;79.83;97090;;;;
2024/04/16 04:01:09;;;;;;;1.7;0.6;;;;;;;9.98;78.47;97093.333333333;;;;
2024/04/16 04:11:01;;;;;;;1.7;0.6;;;;;;;10.06;76.73;97108.333333333;;;;
2024/04/16 04:22:01;;;;;;;1.7;0.6;;;;;;;10.02;79.15;97151.666666667;;;;
2024/04/16 04:32:01;;;;;;;1.3;0.7;;;;;;;10.03;79.49;97161.666666667;;;;
2024/04/16 04:43:02;;;;;;;1.3;0.7;;;;;;;9.93;80.61;97191.666666667;;;;
2024/04/16 04:54:02;;;;;;;3.2;0.8;;;;;;;9.89;81.4;97188.333333333;;;;
2024/04/16 05:04:02;;;;;;;3.2;0.8;;;;;;;9.98;79.72;97223.333333333;;;;
2024/04/16 05:15:02;;;;;;;3.2;0.8;;;;;;;10.02;69.69;97238.333333333;;;;
2024/04/16 05:25:01;;;;;;;5.3;1.9;;;;;;;10.15;67.83;97228.333333333;;;;
2024/04/16 05:35:02;;;;;;;5.3;1.9;;;;;;;10.07;68.81;97226.666666667;;;;
2024/04/16 05:46:01;;;;;;;5.3;1.9;;;;;;;10.09;71.66;97231.666666667;;;;
2024/04/16 05:56:01;;;;;;;4.5;1.7;;;;;;;9.58;73.29;97258.333333333;;;;
2024/04/16 06:07:01;;;;;;;4.5;1.7;;;;;;;9.53;73.31;97270;;;;
2024/04/16 06:17:01;;;;;;;4.5;1.7;;;;;;;9.36;73.57;97301.666666667;;;;
2024/04/16 06:27:01;;;;;;;4;1.6;;;;;;;9.41;72.89;97295;;;;
2024/04/16 06:37:02;;;;;;;4;1.6;;;;;;;9.19;72.26;97313.333333333;;;;
2024/04/16 06:48:01;;;;;;;4;1.6;;;;;;;9.15;72.03;97340;;;;
2024/04/16 06:58:01;;;;;;;2.7;1.3;;;;;;;8.9;71.74;97395;;;;
2024/04/16 07:09:02;;;;;;;2.7;1.3;;;;;;;8.99;72.68;97378.333333333;;;;
2024/04/16 07:19:02;;;;;;;2.7;1.3;;;;;;;9.22;72.29;97333.333333333;;;;
2024/04/16 07:29:02;;;;;;;3.6;1.4;;;;;;;9.49;70.66;97340;;;;
2024/04/16 07:40:02;;;;;;;3.6;1.4;;;;;;;9.35;70.24;97363.333333333;;;;
2024/04/16 07:51:02;;;;;;;3.6;1.4;;;;;;;9.26;69.2;97403.333333333;;;;
2024/04/16 08:01:02;;;;;;;4.8;2.4;;;;;;;9.46;69.47;97428.333333333;;;;
2024/04/16 08:12:02;;;;;;;4.8;2.4;;;;;;;9.34;69.02;97448.333333333;;;;
2024/04/16 08:23:01;;;;;;;4.2;1.7;;;;;;;9.21;69.03;97453.333333333;;;;
2024/04/16 08:33:02;;;;;;;4.2;1.7;;;;;;;9.15;68.98;97430;;;;
2024/04/16 08:43:02;;;;;;;4.2;1.7;;;;;;;9.69;67.4;97420;;;;
2024/04/16 08:54:02;;;;;;;3.6;1.8;;;;;;;9.97;61.46;97460;;;;
2024/04/16 09:05:02;;;;;;;3.6;1.8;;;;;;;9.79;63.36;97476.666666667;;;;
2024/04/16 09:16:02;;;;;;;3.6;1.8;;;;;;;10;58.39;97478.333333333;;;;
2024/04/16 09:27:03;;;;;;;3.5;1.5;;;;;;;9.75;58.15;97480;;;;
2024/04/16 09:37:02;;;;;;;3.5;1.5;;;;;;;10.09;57.42;97478.333333333;;;;
2024/04/16 09:47:02;;;;;;;3.5;1.5;;;;;;;9.85;55.64;97475;;;;
2024/04/16 09:58:02;;;;;;;2.7;1.2;;;;;;;10.36;55.87;97478.333333333;;;;
2024/04/16 10:08:01;;;;;;;2.7;1.2;;;;;;;10.12;55.84;97471.666666667;;;;
2024/04/16 10:18:02;;;;;;;2.7;1.2;;;;;;;10.75;54.61;97495;;;;
2024/04/16 10:29:02;;;;;;;3.2;1.3;;;;;;;10.86;54.74;97521.666666667;;;;
2024/04/16 10:39:02;;;;;;;3.2;1.3;;;;;;;10.41;53.04;97513.333333333;;;;
2024/04/16 10:50:02;;;;;;;3.2;1.3;;;;;;;11.23;53.98;97506;;;;
2024/04/16 11:01:02;;;;;;;3.3;1.2;;;;;;;11.32;52.85;97496;;;;
2024/04/16 11:11:02;;;;;;;3.3;1.2;;;;;;;11.73;52.31;97472;;;;
2024/04/16 11:22:02;;;;;;;3.3;1.2;;;;;;;12.21;50.43;97478;;;;
2024/04/16 11:33:01;;;;;;;3.5;1.6;;;;;;;12.36;48.68;97488;;;;
2024/04/16 11:43:02;;;;;;;3.5;1.6;;;;;;;11.62;46.93;97488;;;;
2024/04/16 11:53:02;;;;;;;3.7;1.6;;;;;;;12.18;49.76;97502;;;;
2024/04/16 12:04:02;;;;;;;3.7;1.6;;;;;;;11.48;50.97;97478.333333333;;;;
2024/04/16 12:15:02;;;;;;;3.7;1.6;;;;;;;11.8;50.13;97490;;;;
2024/04/16 12:25:02;;;;;;;3.7;1.7;;;;;;;12.04;51.13;97475;;;;
2024/04/16 12:36:02;;;;;;;3.7;1.7;;;;;;;11.78;50.11;97420;;;;
2024/04/16 12:47:02;;;;;;;3.7;1.7;;;;;;;12.35;49.46;97440;;;;
2024/04/16 12:57:02;;;;;;;4;1.8;;;;;;;12.04;50.46;97443.333333333;;;;
2024/04/16 13:07:04;;;;;;;4;1.8;;;;;;;12.19;50.11;97438.333333333;;;;
2024/04/16 13:18:02;;;;;;;4;1.8;;;;;;;11.76;51.21;97438.333333333;;;;
2024/04/16 13:28:02;;;;;;;10.2;2.5;;;;;;;11.67;51.41;97400;;;;
2024/04/16 13:39:02;;;;;;;10.2;2.5;;;;;;;11.51;50.7;97431.666666667;;;;
2024/04/16 13:50:02;;;;;;;10.2;2.5;;;;;;;11.66;49.6;97431.666666667;;;;
2024/04/16 14:01:02;;;;;;;3.7;1.4;;;;;;;11.9;48.59;97420;;;;
2024/04/16 14:12:02;;;;;;;3.7;1.4;;;;;;;12.2;47.42;97405;;;;
2024/04/16 14:22:02;;;;;;;4.9;1.9;;;;;;;12.49;46.41;97406.666666667;;;;
2024/04/16 14:33:02;;;;;;;4.9;1.9;;;;;;;11.74;46.49;97415;;;;
2024/04/16 14:44:02;;;;;;;4.9;1.9;;;;;;;11.54;48.95;97426.666666667;;;;
2024/04/16 14:55:02;;;;;;;4.7;1.3;;;;;;;11.57;48.47;97438.333333333;;;;
2024/04/16 15:05:02;;;;;;;4.7;1.3;;;;;;;11.39;49.79;97423.333333333;;;;
2024/04/16 15:16:02;;;;;;;4.7;1.3;;;;;;;11.12;50.39;97411.666666667;;;;
2024/04/16 15:27:02;;;;;;;4.2;1.9;;;;;;;11.16;50.62;97398.333333333;;;;
2024/04/16 15:38:02;;;;;;;4.2;1.9;;;;;;;10.89;51.75;97395;;;;
2024/04/16 15:48:02;;;;;;;4.2;1.9;;;;;;;10.91;52.17;97403.333333333;;;;
2024/04/16 15:58:02;;;;;;;2.4;1;;;;;;;11.27;52.27;97408.333333333;;;;
2024/04/16 16:09:02;;;;;;;2.4;1;;;;;;;10.89;52.7;97401.666666667;;;;
2024/04/16 16:19:02;;;;;;;2.4;1;;;;;;;11.27;53.44;97361.666666667;;;;
2024/04/16 16:30:02;;;;;;;3.1;1.7;;;;;;;11.08;52.7;97386.666666667;;;;
2024/04/16 16:40:02;;;;;;;3.1;1.7;;;;;;;10.7;51.98;97363.333333333;;;;
2024/04/16 16:51:02;;;;;;;3.1;1.7;;;;;;;10.1;53.81;97351.666666667;;;;
2024/04/16 17:02:02;;;;;;;3.4;1.4;;;;;;;9.63;55.58;97360;;;;
2024/04/16 17:12:02;;;;;;;3.4;1.4;;;;;;;9.43;56.91;97383.333333333;;;;
2024/04/16 17:22:02;;;;;;;4.2;1.8;;;;;;;9.2;57.59;97390;;;;
2024/04/16 17:32:02;;;;;;;4.2;1.8;;;;;;;8.91;58.79;97400;;;;
2024/04/16 17:43:02;;;;;;;4.2;1.8;;;;;;;8.61;60.59;97396.666666667;;;;
2024/04/16 17:53:02;;;;;;;7.2;2.3;;;;;;;8.17;62.8;97411.666666667;;;;
2024/04/16 18:04:02;;;;;;;7.2;2.3;;;;;;;7.8;64.18;97420;;;;
2024/04/16 18:14:02;;;;;;;7.2;2.3;;;;;;;7.49;64.21;97420;;;;
2024/04/16 18:24:02;;;;;;;6;3;;;;;;;7.24;64.55;97425;;;;
2024/04/16 18:34:02;;;;;;;6;3;;;;;;;6.83;67.41;97430;;;;
2024/04/16 18:45:02;;;;;;;6;3;;;;;;;6.6;67.5;97410;;;;
2024/04/16 18:56:02;;;;;;;6.4;3;;;;;;;6.1;70.67;97401.666666667;;;;
2024/04/16 19:06:02;;;;;;;6.4;3;;;;;;;5.87;73.26;97395;;;;
2024/04/16 19:17:02;;;;;;;6.4;3;;;;;;;5.93;74.12;97395;;;;
2024/04/16 19:27:02;;;;;;;8;4;;;;;;;5.89;74.16;97390;;;;
2024/04/16 19:37:02;;;;;;;8;4;;;;;;;5.61;75.94;97375;;;;
2024/04/16 19:47:02;;;;;;;8;4;;;;;;;5.5;75.99;97358.333333333;;;;
2024/04/16 19:58:02;;;;;;;7.3;3.7;;;;;;;5.49;75.42;97343.333333333;;;;
2024/04/16 20:08:02;;;;;;;7.3;3.7;;;;;;;5.44;75.23;97341.666666667;;;;
2024/04/16 20:19:02;;;;;;;7.3;3.7;;;;;;;5.29;75.73;97348.333333333;;;;
2024/04/16 20:29:02;;;;;;;7.7;2.6;;;;;;;5.16;76.34;97358.333333333;;;;
2024/04/16 20:39:02;;;;;;;7.7;2.6;;;;;;;5.17;75.98;97356.666666667;;;;
2024/04/16 20:50:02;;;;;;;7.7;2.6;;;;;;;5.29;75.23;97361.666666667;;;;
2024/04/16 21:13:35;;;;;;;;;;;;;;;5.21;74.76;97371.666666667;;;;
2024/04/16 21:24:34;;;;;;;4.6;2.4;;;;;;;5.15;74.43;97371.666666667;;;;
2024/04/16 21:35:35;;;;;;;4.6;2.4;;;;;;;5.08;74.88;97368.333333333;;;;
2024/04/16 21:45:34;;;;;;;6.4;3.6;;;;;;;5.06;73.87;97365;;;;
2024/04/16 21:55:34;;;;;;;6.4;3.6;;;;;;;5.01;74.38;97348.333333333;;;;
2024/04/16 22:05:34;;;;;;;6.4;3.6;;;;;;;5.02;73.89;97353.333333333;;;;
2024/04/16 22:15:34;;;;;;;4.8;2;;;;;;;4.97;73.47;97350;;;;
2024/04/16 22:26:34;;;;;;;4.8;2;;;;;;;4.85;73.25;97341.666666667;;;;
2024/04/16 22:37:34;;;;;;;4.8;2;;;;;;;4.69;74.09;97340;;;;
2024/04/16 22:47:34;;;;;;;4.4;2.2;;;;;;;4.71;73.06;97341.666666667;;;;
2024/04/16 22:57:34;;;;;;;4.4;2.2;;;;;;;4.66;73.16;97340;;;;
2024/04/16 23:08:34;;;;;;;4.4;2.2;;;;;;;4.64;72.37;97346.666666667;;;;
2024/04/16 23:18:34;;;;;;;3.1;1.3;;;;;;;4.55;71.97;97360;;;;
2024/04/16 23:29:34;;;;;;;3.1;1.3;;;;;;;4.29;72.62;97360;;;;
2024/04/16 23:40:34;;;;;;;3.1;1.3;;;;;;;4.02;73.14;97340;;;;
2024/04/16 23:51:34;;;;;;;2;1.3;;;;;;;3.83;74.24;97320;;;;
